sensor_id;sensor_type;location;lat;lon;timestamp;P1;durP1;ratioP1;P2;durP2;ratioP2
33206;SDS011;19565;46.602;11.534;2023-07-13T00:02:03;0.45;;;0.45;;
33206;SDS011;19565;46.602;11.534;2023-07-13T00:04:32;0.77;;;0.30;;
33206;SDS011;19565;46.602;11.534;2023-07-13T00:07:01;2.25;;;0.70;;
33206;SDS011;19565;46.602;11.534;2023-07-13T00:09:30;0.35;;;0.35;;
33206;SDS011;19565;46.602;11.534;2023-07-13T00:11:57;1.85;;;0.65;;
33206;SDS011;19565;46.602;11.534;2023-07-13T00:14:26;2.03;;;0.95;;
33206;SDS011;19565;46.602;11.534;2023-07-13T00:16:55;1.10;;;0.95;;
33206;SDS011;19565;46.602;11.534;2023-07-13T00:19:26;0.35;;;0.35;;
33206;SDS011;19565;46.602;11.534;2023-07-13T00:21:54;0.40;;;0.40;;
33206;SDS011;19565;46.602;11.534;2023-07-13T00:24:24;0.43;;;0.43;;
33206;SDS011;19565;46.602;11.534;2023-07-13T00:26:53;0.35;;;0.35;;
33206;SDS011;19565;46.602;11.534;2023-07-13T00:29:22;0.50;;;0.50;;
33206;SDS011;19565;46.602;11.534;2023-07-13T00:31:50;0.90;;;0.90;;
33206;SDS011;19565;46.602;11.534;2023-07-13T00:34:18;3.95;;;0.95;;
33206;SDS011;19565;46.602;11.534;2023-07-13T00:36:46;2.83;;;1.48;;
33206;SDS011;19565;46.602;11.534;2023-07-13T00:39:14;1.55;;;0.68;;
33206;SDS011;19565;46.602;11.534;2023-07-13T00:41:43;0.73;;;0.70;;
33206;SDS011;19565;46.602;11.534;2023-07-13T00:44:12;1.08;;;0.75;;
33206;SDS011;19565;46.602;11.534;2023-07-13T00:46:41;0.28;;;0.28;;
33206;SDS011;19565;46.602;11.534;2023-07-13T00:49:10;0.60;;;0.60;;
33206;SDS011;19565;46.602;11.534;2023-07-13T00:51:43;0.82;;;0.70;;
33206;SDS011;19565;46.602;11.534;2023-07-13T00:54:15;0.70;;;0.50;;
33206;SDS011;19565;46.602;11.534;2023-07-13T00:56:50;0.68;;;0.43;;
33206;SDS011;19565;46.602;11.534;2023-07-13T00:59:20;0.40;;;0.40;;
33206;SDS011;19565;46.602;11.534;2023-07-13T01:01:50;0.38;;;0.38;;
33206;SDS011;19565;46.602;11.534;2023-07-13T01:04:18;1.77;;;1.17;;
33206;SDS011;19565;46.602;11.534;2023-07-13T01:06:46;2.53;;;1.13;;
33206;SDS011;19565;46.602;11.534;2023-07-13T01:09:15;1.65;;;0.47;;
33206;SDS011;19565;46.602;11.534;2023-07-13T01:11:44;0.63;;;0.57;;
33206;SDS011;19565;46.602;11.534;2023-07-13T01:14:13;4.55;;;0.80;;
33206;SDS011;19565;46.602;11.534;2023-07-13T01:16:44;0.60;;;0.52;;
33206;SDS011;19565;46.602;11.534;2023-07-13T01:19:17;2.65;;;0.63;;
33206;SDS011;19565;46.602;11.534;2023-07-13T01:21:57;1.58;;;0.90;;
33206;SDS011;19565;46.602;11.534;2023-07-13T01:24:25;0.40;;;0.40;;
33206;SDS011;19565;46.602;11.534;2023-07-13T01:26:53;6.65;;;0.77;;
33206;SDS011;19565;46.602;11.534;2023-07-13T01:29:21;1.70;;;1.60;;
33206;SDS011;19565;46.602;11.534;2023-07-13T01:31:49;0.75;;;0.40;;
33206;SDS011;19565;46.602;11.534;2023-07-13T01:34:17;0.57;;;0.57;;
33206;SDS011;19565;46.602;11.534;2023-07-13T01:36:45;0.40;;;0.40;;
33206;SDS011;19565;46.602;11.534;2023-07-13T01:39:15;0.68;;;0.25;;
33206;SDS011;19565;46.602;11.534;2023-07-13T01:41:43;1.27;;;1.15;;
33206;SDS011;19565;46.602;11.534;2023-07-13T01:44:11;3.33;;;1.83;;
33206;SDS011;19565;46.602;11.534;2023-07-13T01:46:39;0.20;;;0.20;;
33206;SDS011;19565;46.602;11.534;2023-07-13T01:49:07;0.32;;;0.30;;
33206;SDS011;19565;46.602;11.534;2023-07-13T01:51:35;1.00;;;0.68;;
33206;SDS011;19565;46.602;11.534;2023-07-13T01:54:03;0.60;;;0.55;;
33206;SDS011;19565;46.602;11.534;2023-07-13T01:56:33;1.55;;;1.25;;
33206;SDS011;19565;46.602;11.534;2023-07-13T01:59:01;0.98;;;0.90;;
33206;SDS011;19565;46.602;11.534;2023-07-13T02:01:29;0.85;;;0.43;;
33206;SDS011;19565;46.602;11.534;2023-07-13T02:03:57;1.33;;;1.23;;
33206;SDS011;19565;46.602;11.534;2023-07-13T02:06:25;2.47;;;0.65;;
33206;SDS011;19565;46.602;11.534;2023-07-13T02:08:53;1.52;;;0.55;;
33206;SDS011;19565;46.602;11.534;2023-07-13T02:11:22;0.95;;;0.95;;
33206;SDS011;19565;46.602;11.534;2023-07-13T02:13:52;0.57;;;0.47;;
33206;SDS011;19565;46.602;11.534;2023-07-13T02:16:20;0.10;;;0.10;;
33206;SDS011;19565;46.602;11.534;2023-07-13T02:18:48;0.28;;;0.28;;
33206;SDS011;19565;46.602;11.534;2023-07-13T02:21:18;2.28;;;0.20;;
33206;SDS011;19565;46.602;11.534;2023-07-13T02:23:46;0.68;;;0.45;;
33206;SDS011;19565;46.602;11.534;2023-07-13T02:26:14;0.20;;;0.20;;
33206;SDS011;19565;46.602;11.534;2023-07-13T02:28:43;0.75;;;0.60;;
33206;SDS011;19565;46.602;11.534;2023-07-13T02:31:13;0.28;;;0.28;;
33206;SDS011;19565;46.602;11.534;2023-07-13T02:33:43;0.13;;;0.13;;
33206;SDS011;19565;46.602;11.534;2023-07-13T02:36:11;0.28;;;0.28;;
33206;SDS011;19565;46.602;11.534;2023-07-13T02:38:40;1.25;;;0.93;;
33206;SDS011;19565;46.602;11.534;2023-07-13T02:41:08;0.80;;;0.45;;
33206;SDS011;19565;46.602;11.534;2023-07-13T02:43:37;0.45;;;0.45;;
33206;SDS011;19565;46.602;11.534;2023-07-13T02:46:05;1.88;;;1.77;;
33206;SDS011;19565;46.602;11.534;2023-07-13T02:48:36;0.57;;;0.40;;
33206;SDS011;19565;46.602;11.534;2023-07-13T02:51:05;1.75;;;0.90;;
33206;SDS011;19565;46.602;11.534;2023-07-13T02:53:35;0.63;;;0.57;;
33206;SDS011;19565;46.602;11.534;2023-07-13T02:56:03;0.28;;;0.28;;
33206;SDS011;19565;46.602;11.534;2023-07-13T02:58:32;0.77;;;0.47;;
33206;SDS011;19565;46.602;11.534;2023-07-13T03:01:05;6.40;;;1.20;;
33206;SDS011;19565;46.602;11.534;2023-07-13T03:03:35;0.30;;;0.30;;
33206;SDS011;19565;46.602;11.534;2023-07-13T03:06:04;0.90;;;0.88;;
33206;SDS011;19565;46.602;11.534;2023-07-13T03:08:35;0.20;;;0.20;;
33206;SDS011;19565;46.602;11.534;2023-07-13T03:11:04;0.40;;;0.40;;
33206;SDS011;19565;46.602;11.534;2023-07-13T03:13:34;0.40;;;0.40;;
33206;SDS011;19565;46.602;11.534;2023-07-13T03:16:03;0.30;;;0.30;;
33206;SDS011;19565;46.602;11.534;2023-07-13T03:18:31;1.40;;;1.25;;
33206;SDS011;19565;46.602;11.534;2023-07-13T03:21:01;1.15;;;0.43;;
33206;SDS011;19565;46.602;11.534;2023-07-13T03:23:30;2.20;;;1.58;;
33206;SDS011;19565;46.602;11.534;2023-07-13T03:26:01;0.20;;;0.20;;
33206;SDS011;19565;46.602;11.534;2023-07-13T03:28:30;0.70;;;0.70;;
33206;SDS011;19565;46.602;11.534;2023-07-13T03:30:59;0.30;;;0.30;;
33206;SDS011;19565;46.602;11.534;2023-07-13T03:33:28;1.23;;;1.13;;
33206;SDS011;19565;46.602;11.534;2023-07-13T03:35:56;0.50;;;0.50;;
33206;SDS011;19565;46.602;11.534;2023-07-13T03:38:26;2.78;;;0.95;;
33206;SDS011;19565;46.602;11.534;2023-07-13T03:40:54;0.80;;;0.80;;
33206;SDS011;19565;46.602;11.534;2023-07-13T03:43:22;1.67;;;0.40;;
33206;SDS011;19565;46.602;11.534;2023-07-13T03:45:50;0.28;;;0.28;;
33206;SDS011;19565;46.602;11.534;2023-07-13T03:48:18;0.50;;;0.50;;
33206;SDS011;19565;46.602;11.534;2023-07-13T03:50:46;1.48;;;0.95;;
33206;SDS011;19565;46.602;11.534;2023-07-13T03:53:15;0.75;;;0.60;;
33206;SDS011;19565;46.602;11.534;2023-07-13T03:55:46;0.40;;;0.40;;
33206;SDS011;19565;46.602;11.534;2023-07-13T03:58:24;0.32;;;0.32;;
33206;SDS011;19565;46.602;11.534;2023-07-13T04:00:55;0.20;;;0.20;;
33206;SDS011;19565;46.602;11.534;2023-07-13T04:03:24;1.38;;;1.27;;
33206;SDS011;19565;46.602;11.534;2023-07-13T04:05:54;0.35;;;0.30;;
33206;SDS011;19565;46.602;11.534;2023-07-13T04:08:26;2.25;;;0.77;;
33206;SDS011;19565;46.602;11.534;2023-07-13T04:10:56;1.05;;;0.82;;
33206;SDS011;19565;46.602;11.534;2023-07-13T04:13:25;0.55;;;0.55;;
33206;SDS011;19565;46.602;11.534;2023-07-13T04:15:54;0.73;;;0.50;;
33206;SDS011;19565;46.602;11.534;2023-07-13T04:18:22;0.28;;;0.28;;
33206;SDS011;19565;46.602;11.534;2023-07-13T04:20:50;0.52;;;0.38;;
33206;SDS011;19565;46.602;11.534;2023-07-13T04:23:19;0.30;;;0.30;;
33206;SDS011;19565;46.602;11.534;2023-07-13T04:25:47;0.47;;;0.35;;
33206;SDS011;19565;46.602;11.534;2023-07-13T04:28:20;0.77;;;0.77;;
33206;SDS011;19565;46.602;11.534;2023-07-13T04:30:49;0.85;;;0.57;;
33206;SDS011;19565;46.602;11.534;2023-07-13T04:33:18;1.05;;;0.88;;
33206;SDS011;19565;46.602;11.534;2023-07-13T04:35:48;0.90;;;0.85;;
33206;SDS011;19565;46.602;11.534;2023-07-13T04:38:16;0.75;;;0.63;;
33206;SDS011;19565;46.602;11.534;2023-07-13T04:40:45;0.30;;;0.30;;
33206;SDS011;19565;46.602;11.534;2023-07-13T04:43:13;0.85;;;0.85;;
33206;SDS011;19565;46.602;11.534;2023-07-13T04:45:43;4.38;;;2.00;;
33206;SDS011;19565;46.602;11.534;2023-07-13T04:48:11;1.60;;;0.50;;
33206;SDS011;19565;46.602;11.534;2023-07-13T04:50:39;2.20;;;1.33;;
33206;SDS011;19565;46.602;11.534;2023-07-13T04:53:07;0.60;;;0.60;;
33206;SDS011;19565;46.602;11.534;2023-07-13T04:55:35;1.38;;;0.93;;
33206;SDS011;19565;46.602;11.534;2023-07-13T04:58:04;0.40;;;0.40;;
33206;SDS011;19565;46.602;11.534;2023-07-13T05:00:32;0.55;;;0.55;;
33206;SDS011;19565;46.602;11.534;2023-07-13T05:03:02;1.08;;;0.88;;
33206;SDS011;19565;46.602;11.534;2023-07-13T05:05:30;1.10;;;0.75;;
33206;SDS011;19565;46.602;11.534;2023-07-13T05:07:59;1.10;;;0.65;;
33206;SDS011;19565;46.602;11.534;2023-07-13T05:10:27;0.30;;;0.30;;
33206;SDS011;19565;46.602;11.534;2023-07-13T05:12:55;0.30;;;0.30;;
33206;SDS011;19565;46.602;11.534;2023-07-13T05:15:23;1.42;;;1.33;;
33206;SDS011;19565;46.602;11.534;2023-07-13T05:17:52;1.88;;;0.65;;
33206;SDS011;19565;46.602;11.534;2023-07-13T05:20:22;1.13;;;0.88;;
33206;SDS011;19565;46.602;11.534;2023-07-13T05:22:50;1.20;;;0.65;;
33206;SDS011;19565;46.602;11.534;2023-07-13T05:25:18;0.40;;;0.40;;
33206;SDS011;19565;46.602;11.534;2023-07-13T05:27:46;2.85;;;1.60;;
33206;SDS011;19565;46.602;11.534;2023-07-13T05:30:14;0.40;;;0.40;;
33206;SDS011;19565;46.602;11.534;2023-07-13T05:32:42;0.43;;;0.43;;
33206;SDS011;19565;46.602;11.534;2023-07-13T05:35:10;0.50;;;0.30;;
33206;SDS011;19565;46.602;11.534;2023-07-13T05:37:40;1.15;;;1.05;;
33206;SDS011;19565;46.602;11.534;2023-07-13T05:40:08;0.30;;;0.30;;
33206;SDS011;19565;46.602;11.534;2023-07-13T05:42:36;1.45;;;1.13;;
33206;SDS011;19565;46.602;11.534;2023-07-13T05:45:05;0.57;;;0.57;;
33206;SDS011;19565;46.602;11.534;2023-07-13T05:47:33;0.30;;;0.30;;
33206;SDS011;19565;46.602;11.534;2023-07-13T05:50:01;1.13;;;0.88;;
33206;SDS011;19565;46.602;11.534;2023-07-13T05:52:32;1.15;;;0.95;;
33206;SDS011;19565;46.602;11.534;2023-07-13T05:55:01;0.40;;;0.40;;
33206;SDS011;19565;46.602;11.534;2023-07-13T05:57:29;0.57;;;0.57;;
33206;SDS011;19565;46.602;11.534;2023-07-13T05:59:58;1.08;;;0.80;;
33206;SDS011;19565;46.602;11.534;2023-07-13T06:02:27;1.38;;;1.27;;
33206;SDS011;19565;46.602;11.534;2023-07-13T06:04:55;2.83;;;1.15;;
33206;SDS011;19565;46.602;11.534;2023-07-13T06:07:23;0.90;;;0.90;;
33206;SDS011;19565;46.602;11.534;2023-07-13T06:09:51;2.25;;;1.77;;
33206;SDS011;19565;46.602;11.534;2023-07-13T06:12:21;1.00;;;1.00;;
33206;SDS011;19565;46.602;11.534;2023-07-13T06:14:49;1.05;;;1.02;;
33206;SDS011;19565;46.602;11.534;2023-07-13T06:17:17;1.35;;;1.25;;
33206;SDS011;19565;46.602;11.534;2023-07-13T06:19:45;1.17;;;1.17;;
33206;SDS011;19565;46.602;11.534;2023-07-13T06:22:14;1.88;;;1.77;;
33206;SDS011;19565;46.602;11.534;2023-07-13T06:24:42;1.40;;;1.35;;
33206;SDS011;19565;46.602;11.534;2023-07-13T06:27:10;1.23;;;1.23;;
33206;SDS011;19565;46.602;11.534;2023-07-13T06:29:39;1.77;;;1.58;;
33206;SDS011;19565;46.602;11.534;2023-07-13T06:32:07;1.50;;;1.20;;
33206;SDS011;19565;46.602;11.534;2023-07-13T06:34:36;1.58;;;1.50;;
33206;SDS011;19565;46.602;11.534;2023-07-13T06:37:08;1.75;;;1.65;;
33206;SDS011;19565;46.602;11.534;2023-07-13T06:39:36;2.22;;;2.13;;
33206;SDS011;19565;46.602;11.534;2023-07-13T06:42:04;1.50;;;1.40;;
33206;SDS011;19565;46.602;11.534;2023-07-13T06:44:33;1.80;;;1.70;;
33206;SDS011;19565;46.602;11.534;2023-07-13T06:47:02;1.33;;;1.33;;
33206;SDS011;19565;46.602;11.534;2023-07-13T06:49:31;1.70;;;1.60;;
33206;SDS011;19565;46.602;11.534;2023-07-13T06:51:59;1.88;;;1.77;;
33206;SDS011;19565;46.602;11.534;2023-07-13T06:54:27;2.63;;;2.42;;
33206;SDS011;19565;46.602;11.534;2023-07-13T06:56:55;2.20;;;2.10;;
33206;SDS011;19565;46.602;11.534;2023-07-13T06:59:23;2.00;;;1.90;;
33206;SDS011;19565;46.602;11.534;2023-07-13T07:01:51;2.05;;;1.95;;
33206;SDS011;19565;46.602;11.534;2023-07-13T07:04:20;7.75;;;2.05;;
33206;SDS011;19565;46.602;11.534;2023-07-13T07:06:48;2.42;;;2.13;;
33206;SDS011;19565;46.602;11.534;2023-07-13T07:09:16;1.70;;;1.60;;
33206;SDS011;19565;46.602;11.534;2023-07-13T07:11:44;2.10;;;2.00;;
33206;SDS011;19565;46.602;11.534;2023-07-13T07:14:29;4.28;;;2.22;;
33206;SDS011;19565;46.602;11.534;2023-07-13T07:16:57;3.08;;;2.88;;
33206;SDS011;19565;46.602;11.534;2023-07-13T07:19:27;2.50;;;2.30;;
33206;SDS011;19565;46.602;11.534;2023-07-13T07:21:56;2.88;;;2.35;;
33206;SDS011;19565;46.602;11.534;2023-07-13T07:24:24;1.80;;;1.70;;
33206;SDS011;19565;46.602;11.534;2023-07-13T07:26:53;2.03;;;1.88;;
33206;SDS011;19565;46.602;11.534;2023-07-13T07:29:23;1.80;;;1.70;;
33206;SDS011;19565;46.602;11.534;2023-07-13T07:31:56;1.52;;;1.50;;
33206;SDS011;19565;46.602;11.534;2023-07-13T07:34:45;2.40;;;2.30;;
33206;SDS011;19565;46.602;11.534;2023-07-13T07:37:13;2.67;;;2.42;;
33206;SDS011;19565;46.602;11.534;2023-07-13T07:39:44;2.30;;;2.17;;
33206;SDS011;19565;46.602;11.534;2023-07-13T07:42:32;2.08;;;1.95;;
33206;SDS011;19565;46.602;11.534;2023-07-13T07:45:00;1.80;;;1.70;;
33206;SDS011;19565;46.602;11.534;2023-07-13T07:47:29;4.28;;;2.08;;
33206;SDS011;19565;46.602;11.534;2023-07-13T07:49:58;1.95;;;1.85;;
33206;SDS011;19565;46.602;11.534;2023-07-13T07:52:26;2.20;;;2.10;;
33206;SDS011;19565;46.602;11.534;2023-07-13T07:54:54;2.35;;;2.25;;
33206;SDS011;19565;46.602;11.534;2023-07-13T07:57:42;2.60;;;2.50;;
33206;SDS011;19565;46.602;11.534;2023-07-13T08:00:14;2.60;;;2.40;;
33206;SDS011;19565;46.602;11.534;2023-07-13T08:02:46;3.28;;;2.97;;
33206;SDS011;19565;46.602;11.534;2023-07-13T08:05:18;2.60;;;2.50;;
33206;SDS011;19565;46.602;11.534;2023-07-13T08:08:05;2.90;;;2.70;;
33206;SDS011;19565;46.602;11.534;2023-07-13T08:10:35;3.13;;;2.92;;
33206;SDS011;19565;46.602;11.534;2023-07-13T08:13:04;4.43;;;4.13;;
33206;SDS011;19565;46.602;11.534;2023-07-13T08:15:35;4.85;;;4.55;;
33206;SDS011;19565;46.602;11.534;2023-07-13T08:18:04;4.55;;;4.30;;
33206;SDS011;19565;46.602;11.534;2023-07-13T08:20:37;5.15;;;4.75;;
33206;SDS011;19565;46.602;11.534;2023-07-13T08:23:06;3.40;;;3.20;;
33206;SDS011;19565;46.602;11.534;2023-07-13T08:25:36;4.57;;;4.18;;
33206;SDS011;19565;46.602;11.534;2023-07-13T08:28:04;4.90;;;4.60;;
33206;SDS011;19565;46.602;11.534;2023-07-13T08:30:32;5.20;;;4.90;;
33206;SDS011;19565;46.602;11.534;2023-07-13T08:33:00;4.93;;;4.45;;
33206;SDS011;19565;46.602;11.534;2023-07-13T08:35:29;5.10;;;4.80;;
33206;SDS011;19565;46.602;11.534;2023-07-13T08:37:58;5.80;;;5.35;;
33206;SDS011;19565;46.602;11.534;2023-07-13T08:40:26;5.10;;;4.75;;
33206;SDS011;19565;46.602;11.534;2023-07-13T08:42:56;5.35;;;5.05;;
33206;SDS011;19565;46.602;11.534;2023-07-13T08:45:28;5.68;;;5.38;;
33206;SDS011;19565;46.602;11.534;2023-07-13T08:48:03;5.43;;;5.13;;
33206;SDS011;19565;46.602;11.534;2023-07-13T08:50:38;7.10;;;6.50;;
33206;SDS011;19565;46.602;11.534;2023-07-13T08:53:29;5.53;;;5.22;;
33206;SDS011;19565;46.602;11.534;2023-07-13T08:56:01;6.68;;;6.28;;
33206;SDS011;19565;46.602;11.534;2023-07-13T08:58:31;7.85;;;7.35;;
33206;SDS011;19565;46.602;11.534;2023-07-13T09:01:02;8.15;;;7.65;;
33206;SDS011;19565;46.602;11.534;2023-07-13T09:03:40;8.77;;;8.10;;
33206;SDS011;19565;46.602;11.534;2023-07-13T09:06:14;10.60;;;10.00;;
33206;SDS011;19565;46.602;11.534;2023-07-13T09:08:48;12.68;;;11.98;;
33206;SDS011;19565;46.602;11.534;2023-07-13T09:11:33;10.77;;;10.18;;
33206;SDS011;19565;46.602;11.534;2023-07-13T09:14:15;10.55;;;9.95;;
33206;SDS011;19565;46.602;11.534;2023-07-13T09:17:02;12.50;;;11.90;;
33206;SDS011;19565;46.602;11.534;2023-07-13T09:19:33;12.00;;;11.20;;
33206;SDS011;19565;46.602;11.534;2023-07-13T09:22:03;15.27;;;14.48;;
33206;SDS011;19565;46.602;11.534;2023-07-13T09:24:38;15.25;;;14.32;;
33206;SDS011;19565;46.602;11.534;2023-07-13T09:27:15;13.82;;;12.93;;
33206;SDS011;19565;46.602;11.534;2023-07-13T09:29:47;17.33;;;16.42;;
33206;SDS011;19565;46.602;11.534;2023-07-13T09:32:18;19.17;;;18.27;;
33206;SDS011;19565;46.602;11.534;2023-07-13T09:34:51;19.95;;;18.70;;
33206;SDS011;19565;46.602;11.534;2023-07-13T09:37:21;25.05;;;23.92;;
33206;SDS011;19565;46.602;11.534;2023-07-13T09:39:56;22.20;;;21.20;;
33206;SDS011;19565;46.602;11.534;2023-07-13T09:42:26;27.58;;;26.38;;
33206;SDS011;19565;46.602;11.534;2023-07-13T09:44:55;31.27;;;29.98;;
33206;SDS011;19565;46.602;11.534;2023-07-13T09:47:29;35.38;;;33.88;;
33206;SDS011;19565;46.602;11.534;2023-07-13T09:49:59;45.42;;;43.53;;
33206;SDS011;19565;46.602;11.534;2023-07-13T09:52:39;49.15;;;47.05;;
33206;SDS011;19565;46.602;11.534;2023-07-13T09:55:28;59.53;;;57.03;;
33206;SDS011;19565;46.602;11.534;2023-07-13T09:57:57;64.78;;;62.08;;
33206;SDS011;19565;46.602;11.534;2023-07-13T10:00:31;73.25;;;70.25;;
33206;SDS011;19565;46.602;11.534;2023-07-13T10:03:00;65.03;;;62.33;;
33206;SDS011;19565;46.602;11.534;2023-07-13T10:05:38;60.35;;;57.85;;
33206;SDS011;19565;46.602;11.534;2023-07-13T10:08:15;61.13;;;58.53;;
33206;SDS011;19565;46.602;11.534;2023-07-13T10:10:53;59.28;;;56.88;;
33206;SDS011;19565;46.602;11.534;2023-07-13T10:13:29;62.40;;;59.80;;
33206;SDS011;19565;46.602;11.534;2023-07-13T10:16:03;65.40;;;62.70;;
33206;SDS011;19565;46.602;11.534;2023-07-13T10:18:36;63.95;;;61.25;;
33206;SDS011;19565;46.602;11.534;2023-07-13T10:21:10;62.25;;;59.67;;
33206;SDS011;19565;46.602;11.534;2023-07-13T10:24:02;62.03;;;59.42;;
33206;SDS011;19565;46.602;11.534;2023-07-13T10:26:39;62.03;;;59.50;;
33206;SDS011;19565;46.602;11.534;2023-07-13T10:29:15;65.20;;;62.53;;
33206;SDS011;19565;46.602;11.534;2023-07-13T10:31:45;65.43;;;62.72;;
33206;SDS011;19565;46.602;11.534;2023-07-13T10:34:13;75.05;;;72.03;;
33206;SDS011;19565;46.602;11.534;2023-07-13T10:36:42;61.80;;;59.30;;
33206;SDS011;19565;46.602;11.534;2023-07-13T10:39:13;62.42;;;59.83;;
33206;SDS011;19565;46.602;11.534;2023-07-13T10:41:46;63.47;;;60.78;;
33206;SDS011;19565;46.602;11.534;2023-07-13T10:44:21;68.22;;;65.45;;
33206;SDS011;19565;46.602;11.534;2023-07-13T10:46:53;70.63;;;67.75;;
33206;SDS011;19565;46.602;11.534;2023-07-13T10:49:23;70.85;;;67.95;;
33206;SDS011;19565;46.602;11.534;2023-07-13T10:51:54;64.05;;;61.42;;
33206;SDS011;19565;46.602;11.534;2023-07-13T10:54:26;65.15;;;62.45;;
33206;SDS011;19565;46.602;11.534;2023-07-13T10:57:08;65.45;;;62.75;;
33206;SDS011;19565;46.602;11.534;2023-07-13T10:59:45;74.05;;;71.13;;
33206;SDS011;19565;46.602;11.534;2023-07-13T11:02:17;77.63;;;74.53;;
33206;SDS011;19565;46.602;11.534;2023-07-13T11:04:53;71.97;;;68.97;;
33206;SDS011;19565;46.602;11.534;2023-07-13T11:07:24;62.33;;;59.72;;
33206;SDS011;19565;46.602;11.534;2023-07-13T11:09:54;70.78;;;67.88;;
33206;SDS011;19565;46.602;11.534;2023-07-13T11:15:27;68.10;;;65.20;;
33206;SDS011;19565;46.602;11.534;2023-07-13T11:18:19;61.40;;;58.42;;
33206;SDS011;19565;46.602;11.534;2023-07-13T11:20:48;62.42;;;59.80;;
33206;SDS011;19565;46.602;11.534;2023-07-13T11:23:18;66.70;;;63.78;;
33206;SDS011;19565;46.602;11.534;2023-07-13T11:25:58;63.60;;;60.90;;
33206;SDS011;19565;46.602;11.534;2023-07-13T11:28:31;58.22;;;55.78;;
33206;SDS011;19565;46.602;11.534;2023-07-13T11:31:14;60.78;;;58.17;;
33206;SDS011;19565;46.602;11.534;2023-07-13T11:33:56;61.78;;;59.17;;
33206;SDS011;19565;46.602;11.534;2023-07-13T11:36:29;67.57;;;64.78;;
33206;SDS011;19565;46.602;11.534;2023-07-13T11:39:04;57.63;;;55.13;;
33206;SDS011;19565;46.602;11.534;2023-07-13T11:41:43;59.58;;;56.97;;
33206;SDS011;19565;46.602;11.534;2023-07-13T11:44:15;57.13;;;54.72;;
33206;SDS011;19565;46.602;11.534;2023-07-13T11:46:46;58.83;;;56.33;;
33206;SDS011;19565;46.602;11.534;2023-07-13T11:49:18;66.45;;;63.65;;
33206;SDS011;19565;46.602;11.534;2023-07-13T11:51:49;77.20;;;74.00;;
33206;SDS011;19565;46.602;11.534;2023-07-13T11:54:23;70.15;;;67.10;;
33206;SDS011;19565;46.602;11.534;2023-07-13T11:56:54;64.22;;;61.53;;
33206;SDS011;19565;46.602;11.534;2023-07-13T11:59:28;67.97;;;65.07;;
33206;SDS011;19565;46.602;11.534;2023-07-13T12:01:58;54.75;;;52.45;;
33206;SDS011;19565;46.602;11.534;2023-07-13T12:04:31;54.50;;;52.20;;
33206;SDS011;19565;46.602;11.534;2023-07-13T12:07:05;55.40;;;53.10;;
33206;SDS011;19565;46.602;11.534;2023-07-13T12:09:35;53.28;;;51.08;;
33206;SDS011;19565;46.602;11.534;2023-07-13T12:12:08;50.85;;;48.75;;
33206;SDS011;19565;46.602;11.534;2023-07-13T12:14:40;53.85;;;51.55;;
33206;SDS011;19565;46.602;11.534;2023-07-13T12:17:09;51.25;;;49.05;;
33206;SDS011;19565;46.602;11.534;2023-07-13T12:19:42;53.03;;;50.83;;
33206;SDS011;19565;46.602;11.534;2023-07-13T12:22:11;55.78;;;53.10;;
33206;SDS011;19565;46.602;11.534;2023-07-13T12:24:40;60.47;;;57.60;;
33206;SDS011;19565;46.602;11.534;2023-07-13T12:27:14;55.53;;;53.13;;
33206;SDS011;19565;46.602;11.534;2023-07-13T12:29:50;53.15;;;50.95;;
33206;SDS011;19565;46.602;11.534;2023-07-13T12:32:21;57.25;;;54.85;;
33206;SDS011;19565;46.602;11.534;2023-07-13T12:34:52;56.28;;;53.92;;
33206;SDS011;19565;46.602;11.534;2023-07-13T12:37:21;55.00;;;51.80;;
33206;SDS011;19565;46.602;11.534;2023-07-13T12:39:50;53.03;;;50.83;;
33206;SDS011;19565;46.602;11.534;2023-07-13T12:42:20;52.58;;;50.38;;
33206;SDS011;19565;46.602;11.534;2023-07-13T12:44:54;52.13;;;49.92;;
33206;SDS011;19565;46.602;11.534;2023-07-13T12:47:26;57.85;;;55.35;;
33206;SDS011;19565;46.602;11.534;2023-07-13T12:49:56;59.63;;;57.08;;
33206;SDS011;19565;46.602;11.534;2023-07-13T12:52:28;59.78;;;57.28;;
33206;SDS011;19565;46.602;11.534;2023-07-13T12:55:03;58.03;;;55.63;;
33206;SDS011;19565;46.602;11.534;2023-07-13T12:57:39;58.47;;;55.97;;
33206;SDS011;19565;46.602;11.534;2023-07-13T13:00:20;52.75;;;50.55;;
33206;SDS011;19565;46.602;11.534;2023-07-13T13:02:52;56.08;;;53.78;;
33206;SDS011;19565;46.602;11.534;2023-07-13T13:05:33;51.05;;;48.95;;
33206;SDS011;19565;46.602;11.534;2023-07-13T13:08:04;49.03;;;47.00;;
33206;SDS011;19565;46.602;11.534;2023-07-13T13:10:32;46.75;;;44.85;;
33206;SDS011;19565;46.602;11.534;2023-07-13T13:13:02;46.60;;;44.50;;
33206;SDS011;19565;46.602;11.534;2023-07-13T13:15:31;50.97;;;48.88;;
33206;SDS011;19565;46.602;11.534;2023-07-13T13:18:00;47.75;;;45.75;;
33206;SDS011;19565;46.602;11.534;2023-07-13T13:20:28;45.10;;;43.20;;
33206;SDS011;19565;46.602;11.534;2023-07-13T13:22:56;39.05;;;37.35;;
33206;SDS011;19565;46.602;11.534;2023-07-13T13:25:24;42.85;;;41.05;;
33206;SDS011;19565;46.602;11.534;2023-07-13T13:27:52;41.33;;;39.63;;
33206;SDS011;19565;46.602;11.534;2023-07-13T13:30:20;47.70;;;45.70;;
33206;SDS011;19565;46.602;11.534;2023-07-13T13:32:50;41.60;;;39.85;;
33206;SDS011;19565;46.602;11.534;2023-07-13T13:35:19;47.67;;;45.67;;
33206;SDS011;19565;46.602;11.534;2023-07-13T13:37:48;47.78;;;45.78;;
33206;SDS011;19565;46.602;11.534;2023-07-13T13:40:18;44.42;;;42.60;;
33206;SDS011;19565;46.602;11.534;2023-07-13T13:42:47;48.25;;;46.17;;
33206;SDS011;19565;46.602;11.534;2023-07-13T13:45:17;50.47;;;48.03;;
33206;SDS011;19565;46.602;11.534;2023-07-13T13:47:46;48.63;;;46.53;;
33206;SDS011;19565;46.602;11.534;2023-07-13T13:50:17;49.33;;;47.33;;
33206;SDS011;19565;46.602;11.534;2023-07-13T13:52:48;55.40;;;53.03;;
33206;SDS011;19565;46.602;11.534;2023-07-13T13:55:18;60.92;;;58.42;;
33206;SDS011;19565;46.602;11.534;2023-07-13T13:57:49;67.15;;;64.35;;
33206;SDS011;19565;46.602;11.534;2023-07-13T14:00:18;63.08;;;60.38;;
33206;SDS011;19565;46.602;11.534;2023-07-13T14:02:48;60.58;;;58.03;;
33206;SDS011;19565;46.602;11.534;2023-07-13T14:05:21;74.18;;;71.07;;
33206;SDS011;19565;46.602;11.534;2023-07-13T14:07:52;70.88;;;67.97;;
33206;SDS011;19565;46.602;11.534;2023-07-13T14:10:20;70.30;;;67.30;;
33206;SDS011;19565;46.602;11.534;2023-07-13T14:12:50;59.60;;;57.10;;
33206;SDS011;19565;46.602;11.534;2023-07-13T14:15:21;62.72;;;60.05;;
33206;SDS011;19565;46.602;11.534;2023-07-13T14:17:50;64.03;;;61.33;;
33206;SDS011;19565;46.602;11.534;2023-07-13T14:20:21;59.65;;;57.15;;
33206;SDS011;19565;46.602;11.534;2023-07-13T14:22:51;58.22;;;55.83;;
33206;SDS011;19565;46.602;11.534;2023-07-13T14:25:21;57.28;;;54.88;;
33206;SDS011;19565;46.602;11.534;2023-07-13T14:27:51;59.50;;;57.00;;
33206;SDS011;19565;46.602;11.534;2023-07-13T14:30:25;58.53;;;56.03;;
33206;SDS011;19565;46.602;11.534;2023-07-13T14:32:53;56.90;;;54.50;;
33206;SDS011;19565;46.602;11.534;2023-07-13T14:35:23;61.17;;;58.58;;
33206;SDS011;19565;46.602;11.534;2023-07-13T14:37:51;60.08;;;57.47;;
33206;SDS011;19565;46.602;11.534;2023-07-13T14:40:21;61.47;;;58.78;;
33206;SDS011;19565;46.602;11.534;2023-07-13T14:42:54;63.03;;;60.13;;
33206;SDS011;19565;46.602;11.534;2023-07-13T14:45:22;62.67;;;59.97;;
33206;SDS011;19565;46.602;11.534;2023-07-13T14:47:50;62.15;;;59.45;;